Dewdrop, Louisiana
Current Conditions -  °F | °C
As of 4:35 AM on Thursday 27 Nov 2014 (Local Time) from KBQP Reporting Station
Clear Clear  
Wind Chill: 35°   Ceiling: Unl
Heat Index: 40°   Visibility: 10mi
Dew Point: 30°   Wind: 8mph
Humidity: 68%   Direction: 320°NW
Pressure: 30.42"   Gusts: NA
Location:  32.8721°N, 91.912°W
Report Text: KBQP 271035Z AUTO 32007KT 10SM CLR 05/M01 A3042 RMK AO2 T00451009
Loading
Personal Weather Stations






























Interactive Weather Map New forecast layout! Learn more

10-Day Weather Forecast

Advertisements
Track Severe Weather on mobile